sensor_id;sensor_type;location;lat;lon;timestamp;pressure;altitude;pressure_sealevel;temperature;humidity
68948;BME280;55996;49.546;7.400;2024-01-30T00:01:11;99925.19;;;1.25;100.00
68948;BME280;55996;49.546;7.400;2024-01-30T00:03:37;99917.31;;;1.19;100.00
68948;BME280;55996;49.546;7.400;2024-01-30T00:06:05;99917.97;;;1.12;100.00
68948;BME280;55996;49.546;7.400;2024-01-30T00:08:30;99911.91;;;1.10;100.00
68948;BME280;55996;49.546;7.400;2024-01-30T00:10:56;99906.69;;;1.07;100.00
68948;BME280;55996;49.546;7.400;2024-01-30T00:13:21;99911.84;;;1.07;100.00
68948;BME280;55996;49.546;7.400;2024-01-30T00:15:48;99906.59;;;1.04;100.00
68948;BME280;55996;49.546;7.400;2024-01-30T00:18:13;99914.47;;;1.10;100.00
68948;BME280;55996;49.546;7.400;2024-01-30T00:20:39;99910.78;;;0.99;100.00
68948;BME280;55996;49.546;7.400;2024-01-30T00:23:04;99915.13;;;1.01;100.00
68948;BME280;55996;49.546;7.400;2024-01-30T00:25:29;99912.59;;;1.03;100.00
68948;BME280;55996;49.546;7.400;2024-01-30T00:27:56;99913.63;;;1.09;100.00
68948;BME280;55996;49.546;7.400;2024-01-30T00:30:21;99922.16;;;1.07;100.00
68948;BME280;55996;49.546;7.400;2024-01-30T00:32:47;99911.31;;;0.87;100.00
68948;BME280;55996;49.546;7.400;2024-01-30T00:35:12;99915.81;;;0.95;100.00
68948;BME280;55996;49.546;7.400;2024-01-30T00:37:37;99919.97;;;0.89;100.00
68948;BME280;55996;49.546;7.400;2024-01-30T00:40:03;99916.47;;;0.87;100.00
68948;BME280;55996;49.546;7.400;2024-01-30T00:42:29;99909.53;;;0.84;100.00
68948;BME280;55996;49.546;7.400;2024-01-30T00:44:54;99917.41;;;0.90;100.00
68948;BME280;55996;49.546;7.400;2024-01-30T00:47:19;99918.19;;;0.86;100.00
68948;BME280;55996;49.546;7.400;2024-01-30T00:49:45;99907.63;;;0.77;100.00
68948;BME280;55996;49.546;7.400;2024-01-30T00:52:11;99902.44;;;0.75;100.00
68948;BME280;55996;49.546;7.400;2024-01-30T00:54:37;99914.47;;;0.75;100.00
68948;BME280;55996;49.546;7.400;2024-01-30T00:57:02;99910.91;;;0.70;100.00
68948;BME280;55996;49.546;7.400;2024-01-30T00:59:28;99906.47;;;0.66;100.00
68948;BME280;55996;49.546;7.400;2024-01-30T01:01:53;99907.44;;;0.69;100.00
68948;BME280;55996;49.546;7.400;2024-01-30T01:04:18;99917.00;;;0.73;100.00
68948;BME280;55996;49.546;7.400;2024-01-30T01:06:44;99908.31;;;0.70;100.00
68948;BME280;55996;49.546;7.400;2024-01-30T01:09:11;99908.09;;;0.62;100.00
68948;BME280;55996;49.546;7.400;2024-01-30T01:11:37;99904.81;;;0.68;100.00
68948;BME280;55996;49.546;7.400;2024-01-30T01:14:03;99910.75;;;0.65;100.00
68948;BME280;55996;49.546;7.400;2024-01-30T01:16:29;99907.06;;;0.55;100.00
68948;BME280;55996;49.546;7.400;2024-01-30T01:18:54;99913.31;;;0.63;100.00
68948;BME280;55996;49.546;7.400;2024-01-30T01:21:20;99910.81;;;0.68;100.00
68948;BME280;55996;49.546;7.400;2024-01-30T01:23:45;99903.06;;;0.67;100.00
68948;BME280;55996;49.546;7.400;2024-01-30T01:26:11;99911.78;;;0.72;100.00
68948;BME280;55996;49.546;7.400;2024-01-30T01:28:36;99917.41;;;0.57;100.00
68948;BME280;55996;49.546;7.400;2024-01-30T01:31:01;99904.81;;;0.68;100.00
68948;BME280;55996;49.546;7.400;2024-01-30T01:33:33;99911.63;;;0.66;100.00
68948;BME280;55996;49.546;7.400;2024-01-30T01:35:59;99913.97;;;0.56;100.00
68948;BME280;55996;49.546;7.400;2024-01-30T01:38:24;99913.34;;;0.65;100.00
68948;BME280;55996;49.546;7.400;2024-01-30T01:40:50;99901.09;;;0.56;100.00
68948;BME280;55996;49.546;7.400;2024-01-30T01:43:16;99913.03;;;0.54;100.00
68948;BME280;55996;49.546;7.400;2024-01-30T01:45:41;99910.41;;;0.51;100.00
68948;BME280;55996;49.546;7.400;2024-01-30T01:48:07;99908.50;;;0.45;100.00
68948;BME280;55996;49.546;7.400;2024-01-30T01:50:33;99904.25;;;0.46;100.00
68948;BME280;55996;49.546;7.400;2024-01-30T01:52:59;99894.56;;;0.37;100.00
68948;BME280;55996;49.546;7.400;2024-01-30T01:55:24;99892.78;;;0.35;100.00
68948;BME280;55996;49.546;7.400;2024-01-30T01:57:53;99895.16;;;0.27;100.00
68948;BME280;55996;49.546;7.400;2024-01-30T02:00:19;99913.41;;;0.36;100.00
68948;BME280;55996;49.546;7.400;2024-01-30T02:02:45;99914.06;;;0.29;100.00
68948;BME280;55996;49.546;7.400;2024-01-30T02:05:12;99908.97;;;0.30;100.00
68948;BME280;55996;49.546;7.400;2024-01-30T02:07:37;99903.66;;;0.24;100.00
68948;BME280;55996;49.546;7.400;2024-01-30T02:10:03;99913.94;;;0.24;100.00
68948;BME280;55996;49.546;7.400;2024-01-30T02:12:29;99912.47;;;0.32;100.00
68948;BME280;55996;49.546;7.400;2024-01-30T02:14:55;99880.28;;;0.17;100.00
68948;BME280;55996;49.546;7.400;2024-01-30T02:17:20;99887.97;;;0.15;100.00
68948;BME280;55996;49.546;7.400;2024-01-30T02:19:46;99904.47;;;0.23;100.00
68948;BME280;55996;49.546;7.400;2024-01-30T02:22:12;99912.22;;;0.25;100.00
68948;BME280;55996;49.546;7.400;2024-01-30T02:24:38;99901.59;;;0.12;100.00
68948;BME280;55996;49.546;7.400;2024-01-30T02:27:03;99891.38;;;0.14;100.00
68948;BME280;55996;49.546;7.400;2024-01-30T02:29:29;99906.88;;;0.17;100.00
68948;BME280;55996;49.546;7.400;2024-01-30T02:31:54;99905.22;;;0.19;100.00
68948;BME280;55996;49.546;7.400;2024-01-30T02:34:20;99893.28;;;0.21;100.00
68948;BME280;55996;49.546;7.400;2024-01-30T02:36:46;99888.81;;;0.15;100.00
68948;BME280;55996;49.546;7.400;2024-01-30T02:39:11;99889.63;;;0.13;100.00
68948;BME280;55996;49.546;7.400;2024-01-30T02:41:37;99891.25;;;0.11;100.00
68948;BME280;55996;49.546;7.400;2024-01-30T02:44:03;99897.41;;;0.16;100.00
68948;BME280;55996;49.546;7.400;2024-01-30T02:46:29;99895.78;;;0.20;100.00
68948;BME280;55996;49.546;7.400;2024-01-30T02:48:54;99883.66;;;0.14;100.00
68948;BME280;55996;49.546;7.400;2024-01-30T02:51:20;99878.19;;;0.03;100.00
68948;BME280;55996;49.546;7.400;2024-01-30T02:53:45;99894.03;;;0.19;100.00
68948;BME280;55996;49.546;7.400;2024-01-30T02:56:10;99889.50;;;0.10;100.00
68948;BME280;55996;49.546;7.400;2024-01-30T02:58:37;99865.28;;;0.00;100.00
68948;BME280;55996;49.546;7.400;2024-01-30T03:01:02;99891.97;;;0.05;100.00
68948;BME280;55996;49.546;7.400;2024-01-30T03:03:28;99875.84;;;-0.20;100.00
68948;BME280;55996;49.546;7.400;2024-01-30T03:05:53;99899.19;;;-0.12;100.00
68948;BME280;55996;49.546;7.400;2024-01-30T03:08:19;99907.13;;;-0.04;100.00
68948;BME280;55996;49.546;7.400;2024-01-30T03:10:44;99905.28;;;-0.08;100.00
68948;BME280;55996;49.546;7.400;2024-01-30T03:13:10;99899.00;;;-0.18;100.00
68948;BME280;55996;49.546;7.400;2024-01-30T03:15:35;99898.91;;;-0.21;100.00
68948;BME280;55996;49.546;7.400;2024-01-30T03:18:02;99890.28;;;-0.23;100.00
68948;BME280;55996;49.546;7.400;2024-01-30T03:20:29;99905.84;;;-0.19;100.00
68948;BME280;55996;49.546;7.400;2024-01-30T03:22:55;99894.72;;;-0.18;100.00
68948;BME280;55996;49.546;7.400;2024-01-30T03:25:21;99904.13;;;-0.18;100.00
68948;BME280;55996;49.546;7.400;2024-01-30T03:27:47;99896.56;;;-0.13;100.00
68948;BME280;55996;49.546;7.400;2024-01-30T03:30:12;99890.28;;;-0.23;100.00
68948;BME280;55996;49.546;7.400;2024-01-30T03:32:37;99904.03;;;-0.21;100.00
68948;BME280;55996;49.546;7.400;2024-01-30T03:35:03;99898.03;;;-0.22;100.00
68948;BME280;55996;49.546;7.400;2024-01-30T03:37:29;99883.09;;;-0.34;100.00
68948;BME280;55996;49.546;7.400;2024-01-30T03:39:55;99893.00;;;-0.19;100.00
68948;BME280;55996;49.546;7.400;2024-01-30T03:42:20;99900.56;;;-0.23;100.00
68948;BME280;55996;49.546;7.400;2024-01-30T03:44:45;99883.59;;;-0.18;100.00
68948;BME280;55996;49.546;7.400;2024-01-30T03:47:11;99884.63;;;-0.11;100.00
68948;BME280;55996;49.546;7.400;2024-01-30T03:49:36;99892.84;;;-0.23;100.00
68948;BME280;55996;49.546;7.400;2024-01-30T03:52:01;99888.34;;;-0.30;100.00
68948;BME280;55996;49.546;7.400;2024-01-30T03:54:27;99901.28;;;-0.27;100.00
68948;BME280;55996;49.546;7.400;2024-01-30T03:56:52;99895.28;;;-0.28;100.00
68948;BME280;55996;49.546;7.400;2024-01-30T03:59:17;99877.06;;;-0.36;100.00
68948;BME280;55996;49.546;7.400;2024-01-30T04:01:48;99877.78;;;-0.40;100.00
68948;BME280;55996;49.546;7.400;2024-01-30T04:04:13;99883.84;;;-0.38;100.00
68948;BME280;55996;49.546;7.400;2024-01-30T04:06:38;99885.78;;;-0.30;100.00
68948;BME280;55996;49.546;7.400;2024-01-30T04:09:04;99888.25;;;-0.34;100.00
68948;BME280;55996;49.546;7.400;2024-01-30T04:11:29;99889.88;;;-0.37;100.00
68948;BME280;55996;49.546;7.400;2024-01-30T04:13:54;99881.19;;;-0.41;100.00
68948;BME280;55996;49.546;7.400;2024-01-30T04:16:20;99893.38;;;-0.34;100.00
68948;BME280;55996;49.546;7.400;2024-01-30T04:18:47;99874.34;;;-0.40;100.00
68948;BME280;55996;49.546;7.400;2024-01-30T04:21:13;99861.13;;;-0.53;100.00
68948;BME280;55996;49.546;7.400;2024-01-30T04:23:39;99883.22;;;-0.30;100.00
68948;BME280;55996;49.546;7.400;2024-01-30T04:26:07;99887.31;;;-0.37;100.00
68948;BME280;55996;49.546;7.400;2024-01-30T04:28:33;99878.53;;;-0.44;100.00
68948;BME280;55996;49.546;7.400;2024-01-30T04:30:58;99879.44;;;-0.42;100.00
68948;BME280;55996;49.546;7.400;2024-01-30T04:33:24;99894.28;;;-0.33;100.00
68948;BME280;55996;49.546;7.400;2024-01-30T04:35:49;99885.69;;;-0.34;100.00
68948;BME280;55996;49.546;7.400;2024-01-30T04:38:14;99893.16;;;-0.41;100.00
68948;BME280;55996;49.546;7.400;2024-01-30T04:40:40;99900.88;;;-0.41;100.00
68948;BME280;55996;49.546;7.400;2024-01-30T04:43:05;99894.06;;;-0.41;100.00
68948;BME280;55996;49.546;7.400;2024-01-30T04:45:31;99891.38;;;-0.44;100.00
68948;BME280;55996;49.546;7.400;2024-01-30T04:47:56;99891.19;;;-0.50;100.00
68948;BME280;55996;49.546;7.400;2024-01-30T04:50:23;99907.16;;;-0.31;100.00
68948;BME280;55996;49.546;7.400;2024-01-30T04:52:48;99903.34;;;-0.44;100.00
68948;BME280;55996;49.546;7.400;2024-01-30T04:55:13;99914.28;;;-0.50;100.00
68948;BME280;55996;49.546;7.400;2024-01-30T04:57:39;99902.91;;;-0.31;100.00
68948;BME280;55996;49.546;7.400;2024-01-30T05:00:05;99878.97;;;-0.57;100.00
68948;BME280;55996;49.546;7.400;2024-01-30T05:02:30;99900.72;;;-0.46;100.00
68948;BME280;55996;49.546;7.400;2024-01-30T05:04:56;99901.66;;;-0.44;100.00
68948;BME280;55996;49.546;7.400;2024-01-30T05:07:21;99883.00;;;-0.66;100.00
68948;BME280;55996;49.546;7.400;2024-01-30T05:09:46;99906.63;;;-0.49;100.00
68948;BME280;55996;49.546;7.400;2024-01-30T05:12:12;99903.16;;;-0.51;100.00
68948;BME280;55996;49.546;7.400;2024-01-30T05:14:37;99907.41;;;-0.51;100.00
68948;BME280;55996;49.546;7.400;2024-01-30T05:17:03;99902.91;;;-0.58;100.00
68948;BME280;55996;49.546;7.400;2024-01-30T05:19:28;99907.13;;;-0.60;100.00
68948;BME280;55996;49.546;7.400;2024-01-30T05:21:54;99907.09;;;-0.62;100.00
68948;BME280;55996;49.546;7.400;2024-01-30T05:24:19;99896.81;;;-0.62;100.00
68948;BME280;55996;49.546;7.400;2024-01-30T05:26:44;99890.59;;;-0.69;100.00
68948;BME280;55996;49.546;7.400;2024-01-30T05:29:10;99899.44;;;-0.60;100.00
68948;BME280;55996;49.546;7.400;2024-01-30T05:31:35;99910.94;;;-0.47;100.00
68948;BME280;55996;49.546;7.400;2024-01-30T05:34:01;99887.28;;;-0.65;100.00
68948;BME280;55996;49.546;7.400;2024-01-30T05:36:26;99917.59;;;-0.54;100.00
68948;BME280;55996;49.546;7.400;2024-01-30T05:38:51;99920.94;;;-0.57;100.00
68948;BME280;55996;49.546;7.400;2024-01-30T05:41:17;99918.41;;;-0.55;100.00
68948;BME280;55996;49.546;7.400;2024-01-30T05:43:42;99901.00;;;-0.66;100.00
68948;BME280;55996;49.546;7.400;2024-01-30T05:46:08;99908.69;;;-0.38;100.00
68948;BME280;55996;49.546;7.400;2024-01-30T05:48:33;99912.63;;;-0.50;100.00
68948;BME280;55996;49.546;7.400;2024-01-30T05:51:00;99900.72;;;-0.46;100.00
68948;BME280;55996;49.546;7.400;2024-01-30T05:53:26;99915.84;;;-0.55;100.00
68948;BME280;55996;49.546;7.400;2024-01-30T05:55:51;99903.19;;;-0.49;100.00
68948;BME280;55996;49.546;7.400;2024-01-30T05:58:16;99915.31;;;-0.45;100.00
68948;BME280;55996;49.546;7.400;2024-01-30T06:00:42;99907.38;;;-0.53;100.00
68948;BME280;55996;49.546;7.400;2024-01-30T06:03:07;99901.78;;;-0.39;100.00
68948;BME280;55996;49.546;7.400;2024-01-30T06:05:34;99913.47;;;-0.49;100.00
68948;BME280;55996;49.546;7.400;2024-01-30T06:08:02;99878.97;;;-0.57;100.00
68948;BME280;55996;49.546;7.400;2024-01-30T06:10:27;99897.75;;;-0.58;100.00
68948;BME280;55996;49.546;7.400;2024-01-30T06:12:52;99891.81;;;-0.57;100.00
68948;BME280;55996;49.546;7.400;2024-01-30T06:15:18;99906.41;;;-0.56;100.00
68948;BME280;55996;49.546;7.400;2024-01-30T06:17:43;99908.22;;;-0.52;100.00
68948;BME280;55996;49.546;7.400;2024-01-30T06:20:09;99912.34;;;-0.57;100.00
68948;BME280;55996;49.546;7.400;2024-01-30T06:22:34;99877.41;;;-0.79;100.00
68948;BME280;55996;49.546;7.400;2024-01-30T06:24:59;99893.97;;;-0.70;100.00
68948;BME280;55996;49.546;7.400;2024-01-30T06:27:25;99899.28;;;-0.65;100.00
68948;BME280;55996;49.546;7.400;2024-01-30T06:29:50;99876.75;;;-0.74;100.00
68948;BME280;55996;49.546;7.400;2024-01-30T06:32:15;99890.72;;;-0.66;100.00
68948;BME280;55996;49.546;7.400;2024-01-30T06:34:41;99913.28;;;-0.55;100.00
68948;BME280;55996;49.546;7.400;2024-01-30T06:37:07;99897.44;;;-0.69;100.00
68948;BME280;55996;49.546;7.400;2024-01-30T06:39:32;99895.97;;;-0.61;100.00
68948;BME280;55996;49.546;7.400;2024-01-30T06:41:57;99905.28;;;-0.65;100.00
68948;BME280;55996;49.546;7.400;2024-01-30T06:44:23;99919.28;;;-0.55;100.00
68948;BME280;55996;49.546;7.400;2024-01-30T06:46:48;99894.88;;;-0.69;100.00
68948;BME280;55996;49.546;7.400;2024-01-30T06:49:13;99924.75;;;-0.44;100.00
68948;BME280;55996;49.546;7.400;2024-01-30T06:51:39;99911.44;;;-0.59;100.00
68948;BME280;55996;49.546;7.400;2024-01-30T06:54:04;99917.38;;;-0.62;100.00
68948;BME280;55996;49.546;7.400;2024-01-30T06:56:30;99925.19;;;-0.57;100.00
68948;BME280;55996;49.546;7.400;2024-01-30T06:58:55;99932.38;;;-0.47;100.00
68948;BME280;55996;49.546;7.400;2024-01-30T07:01:28;99931.47;;;-0.49;100.00
68948;BME280;55996;49.546;7.400;2024-01-30T07:03:54;99925.59;;;-0.45;100.00
68948;BME280;55996;49.546;7.400;2024-01-30T07:06:20;99914.09;;;-0.56;100.00
68948;BME280;55996;49.546;7.400;2024-01-30T07:08:45;99916.19;;;-0.44;100.00
68948;BME280;55996;49.546;7.400;2024-01-30T07:11:18;99904.22;;;-0.44;100.00
68948;BME280;55996;49.546;7.400;2024-01-30T07:13:45;99903.34;;;-0.44;100.00
68948;BME280;55996;49.546;7.400;2024-01-30T07:16:10;99925.59;;;-0.45;100.00
68948;BME280;55996;49.546;7.400;2024-01-30T07:18:35;99929.13;;;-0.41;100.00
68948;BME280;55996;49.546;7.400;2024-01-30T07:21:03;99921.56;;;-0.37;100.00
68948;BME280;55996;49.546;7.400;2024-01-30T07:23:29;99937.84;;;-0.36;100.00
68948;BME280;55996;49.546;7.400;2024-01-30T07:25:55;99905.22;;;-0.39;100.00
68948;BME280;55996;49.546;7.400;2024-01-30T07:28:20;99937.72;;;-0.41;100.00
68948;BME280;55996;49.546;7.400;2024-01-30T07:30:46;99929.25;;;-0.38;100.00
68948;BME280;55996;49.546;7.400;2024-01-30T07:33:13;99932.97;;;-0.28;100.00
68948;BME280;55996;49.546;7.400;2024-01-30T07:35:39;99916.44;;;-0.37;100.00
68948;BME280;55996;49.546;7.400;2024-01-30T07:38:04;99935.84;;;-0.18;100.00
68948;BME280;55996;49.546;7.400;2024-01-30T07:40:29;99927.31;;;-0.17;100.00
68948;BME280;55996;49.546;7.400;2024-01-30T07:42:55;99960.38;;;0.00;100.00
68948;BME280;55996;49.546;7.400;2024-01-30T07:45:20;99937.06;;;-0.06;100.00
68948;BME280;55996;49.546;7.400;2024-01-30T07:47:51;99935.53;;;0.01;100.00
68948;BME280;55996;49.546;7.400;2024-01-30T07:50:17;99950.59;;;0.17;100.00
68948;BME280;55996;49.546;7.400;2024-01-30T07:52:45;99947.19;;;0.18;100.00
68948;BME280;55996;49.546;7.400;2024-01-30T07:55:11;99953.00;;;0.12;100.00
68948;BME280;55996;49.546;7.400;2024-01-30T07:57:39;99953.34;;;0.23;100.00
68948;BME280;55996;49.546;7.400;2024-01-30T08:00:05;99957.88;;;0.32;100.00
68948;BME280;55996;49.546;7.400;2024-01-30T08:02:32;99960.44;;;0.32;100.00
68948;BME280;55996;49.546;7.400;2024-01-30T08:04:58;99954.81;;;0.45;100.00
68948;BME280;55996;49.546;7.400;2024-01-30T08:07:23;99961.44;;;0.37;100.00
68948;BME280;55996;49.546;7.400;2024-01-30T08:09:48;99941.16;;;0.48;100.00
68948;BME280;55996;49.546;7.400;2024-01-30T08:12:14;99953.34;;;0.54;100.00
68948;BME280;55996;49.546;7.400;2024-01-30T08:14:39;99935.47;;;0.58;100.00
68948;BME280;55996;49.546;7.400;2024-01-30T08:17:06;99961.25;;;0.60;100.00
68948;BME280;55996;49.546;7.400;2024-01-30T08:19:32;99954.38;;;0.60;100.00
68948;BME280;55996;49.546;7.400;2024-01-30T08:21:58;99945.88;;;0.63;100.00
68948;BME280;55996;49.546;7.400;2024-01-30T08:24:23;99959.00;;;0.72;100.00
68948;BME280;55996;49.546;7.400;2024-01-30T08:26:48;99952.16;;;0.73;100.00
68948;BME280;55996;49.546;7.400;2024-01-30T08:29:17;99953.13;;;0.78;100.00
68948;BME280;55996;49.546;7.400;2024-01-30T08:31:42;99952.50;;;0.87;100.00
68948;BME280;55996;49.546;7.400;2024-01-30T08:34:07;99943.09;;;0.87;100.00
68948;BME280;55996;49.546;7.400;2024-01-30T08:36:33;99959.53;;;0.92;100.00
68948;BME280;55996;49.546;7.400;2024-01-30T08:38:58;99963.25;;;1.04;100.00
68948;BME280;55996;49.546;7.400;2024-01-30T08:41:23;99964.50;;;1.18;100.00
68948;BME280;55996;49.546;7.400;2024-01-30T08:43:49;99931.81;;;1.16;100.00
68948;BME280;55996;49.546;7.400;2024-01-30T08:46:17;99957.31;;;1.41;100.00
68948;BME280;55996;49.546;7.400;2024-01-30T08:48:43;99970.66;;;1.60;100.00
68948;BME280;55996;49.546;7.400;2024-01-30T08:51:09;99960.47;;;1.65;100.00
68948;BME280;55996;49.546;7.400;2024-01-30T08:53:35;99954.66;;;1.73;100.00
68948;BME280;55996;49.546;7.400;2024-01-30T08:56:02;99942.72;;;1.78;100.00
68948;BME280;55996;49.546;7.400;2024-01-30T08:58:27;99963.59;;;1.88;100.00
68948;BME280;55996;49.546;7.400;2024-01-30T09:00:52;99936.13;;;1.90;100.00
68948;BME280;55996;49.546;7.400;2024-01-30T09:03:18;99947.50;;;2.00;100.00
68948;BME280;55996;49.546;7.400;2024-01-30T09:05:43;99945.91;;;2.05;100.00
68948;BME280;55996;49.546;7.400;2024-01-30T09:08:09;99958.97;;;2.13;100.00
68948;BME280;55996;49.546;7.400;2024-01-30T09:10:35;99964.09;;;2.11;100.00
68948;BME280;55996;49.546;7.400;2024-01-30T09:13:00;99953.00;;;2.15;100.00
68948;BME280;55996;49.546;7.400;2024-01-30T09:15:26;99968.78;;;2.29;100.00
68948;BME280;55996;49.546;7.400;2024-01-30T09:17:51;99959.16;;;2.22;100.00
68948;BME280;55996;49.546;7.400;2024-01-30T09:20:16;99960.34;;;2.38;100.00
68948;BME280;55996;49.546;7.400;2024-01-30T09:22:42;99963.16;;;2.49;100.00
68948;BME280;55996;49.546;7.400;2024-01-30T09:25:07;99946.97;;;2.57;100.00
68948;BME280;55996;49.546;7.400;2024-01-30T09:27:32;99957.78;;;2.82;100.00
68948;BME280;55996;49.546;7.400;2024-01-30T09:29:58;99962.59;;;3.10;100.00
68948;BME280;55996;49.546;7.400;2024-01-30T09:32:23;99968.00;;;3.23;100.00
68948;BME280;55996;49.546;7.400;2024-01-30T09:34:48;99970.31;;;3.08;100.00
68948;BME280;55996;49.546;7.400;2024-01-30T09:37:14;99971.78;;;3.43;100.00
68948;BME280;55996;49.546;7.400;2024-01-30T09:39:40;99976.25;;;3.54;100.00
68948;BME280;55996;49.546;7.400;2024-01-30T09:42:20;99973.13;;;3.74;100.00
68948;BME280;55996;49.546;7.400;2024-01-30T09:44:51;99957.69;;;3.79;100.00
68948;BME280;55996;49.546;7.400;2024-01-30T09:47:17;99966.50;;;3.92;100.00
68948;BME280;55996;49.546;7.400;2024-01-30T09:49:43;99980.59;;;4.12;100.00
68948;BME280;55996;49.546;7.400;2024-01-30T09:52:09;99971.91;;;4.07;100.00
68948;BME280;55996;49.546;7.400;2024-01-30T09:54:35;99977.06;;;4.07;100.00
68948;BME280;55996;49.546;7.400;2024-01-30T09:57:01;99984.19;;;4.24;100.00
68948;BME280;55996;49.546;7.400;2024-01-30T09:59:26;99981.63;;;4.25;100.00
68948;BME280;55996;49.546;7.400;2024-01-30T10:01:52;99982.63;;;4.35;100.00
68948;BME280;55996;49.546;7.400;2024-01-30T10:04:17;99981.78;;;4.36;100.00
68948;BME280;55996;49.546;7.400;2024-01-30T10:06:43;99963.72;;;4.42;100.00
68948;BME280;55996;49.546;7.400;2024-01-30T10:09:08;99988.09;;;4.60;100.00
68948;BME280;55996;49.546;7.400;2024-01-30T10:11:35;99983.91;;;4.71;100.00
68948;BME280;55996;49.546;7.400;2024-01-30T10:14:01;99977.88;;;4.69;100.00
68948;BME280;55996;49.546;7.400;2024-01-30T10:16:26;99972.00;;;4.84;100.00
68948;BME280;55996;49.546;7.400;2024-01-30T10:18:51;99981.66;;;5.02;100.00
68948;BME280;55996;49.546;7.400;2024-01-30T10:21:17;99988.66;;;5.09;100.00
68948;BME280;55996;49.546;7.400;2024-01-30T10:23:43;99977.50;;;5.18;100.00
68948;BME280;55996;49.546;7.400;2024-01-30T10:26:10;99979.44;;;5.38;100.00
68948;BME280;55996;49.546;7.400;2024-01-30T10:28:35;99973.44;;;5.43;100.00
68948;BME280;55996;49.546;7.400;2024-01-30T10:31:01;99984.81;;;5.62;100.00
68948;BME280;55996;49.546;7.400;2024-01-30T10:33:29;99973.69;;;5.76;100.00
68948;BME280;55996;49.546;7.400;2024-01-30T10:36:02;99978.19;;;6.00;100.00
68948;BME280;55996;49.546;7.400;2024-01-30T10:38:32;99959.22;;;6.09;100.00
68948;BME280;55996;49.546;7.400;2024-01-30T10:40:59;99972.31;;;6.29;100.00
68948;BME280;55996;49.546;7.400;2024-01-30T10:43:32;99952.38;;;6.23;100.00
68948;BME280;55996;49.546;7.400;2024-01-30T10:46:10;99944.66;;;6.40;100.00
68948;BME280;55996;49.546;7.400;2024-01-30T10:48:42;99960.28;;;6.46;100.00
68948;BME280;55996;49.546;7.400;2024-01-30T10:51:10;99955.13;;;6.59;100.00
68948;BME280;55996;49.546;7.400;2024-01-30T10:53:36;99972.56;;;6.91;100.00
68948;BME280;55996;49.546;7.400;2024-01-30T10:56:03;99963.94;;;7.06;100.00
68948;BME280;55996;49.546;7.400;2024-01-30T10:58:29;99969.16;;;7.20;100.00
68948;BME280;55996;49.546;7.400;2024-01-30T11:00:55;99949.22;;;7.25;100.00
68948;BME280;55996;49.546;7.400;2024-01-30T11:03:22;99958.75;;;7.34;100.00
68948;BME280;55996;49.546;7.400;2024-01-30T11:05:52;99955.28;;;7.50;100.00
68948;BME280;55996;49.546;7.400;2024-01-30T11:08:24;99961.34;;;7.77;100.00
68948;BME280;55996;49.546;7.400;2024-01-30T11:10:49;99944.00;;;7.85;100.00
68948;BME280;55996;49.546;7.400;2024-01-30T11:13:15;99959.56;;;8.07;100.00
68948;BME280;55996;49.546;7.400;2024-01-30T11:15:41;99956.09;;;8.13;100.00
68948;BME280;55996;49.546;7.400;2024-01-30T11:18:06;99948.28;;;8.06;100.00
68948;BME280;55996;49.546;7.400;2024-01-30T11:20:32;99953.53;;;7.94;100.00
68948;BME280;55996;49.546;7.400;2024-01-30T11:22:59;99939.59;;;8.04;100.00
68948;BME280;55996;49.546;7.400;2024-01-30T11:25:27;99948.25;;;8.19;100.00
68948;BME280;55996;49.546;7.400;2024-01-30T11:27:54;99940.38;;;8.30;100.00
68948;BME280;55996;49.546;7.400;2024-01-30T11:33:09;99940.28;;;8.64;100.00
68948;BME280;55996;49.546;7.400;2024-01-30T11:35:40;99939.38;;;8.72;100.00
68948;BME280;55996;49.546;7.400;2024-01-30T11:38:08;99941.06;;;8.86;100.00
68948;BME280;55996;49.546;7.400;2024-01-30T11:40:35;99932.25;;;8.98;100.00
68948;BME280;55996;49.546;7.400;2024-01-30T11:43:02;99932.25;;;9.06;100.00
68948;BME280;55996;49.546;7.400;2024-01-30T11:45:29;99930.47;;;9.08;100.00
68948;BME280;55996;49.546;7.400;2024-01-30T11:47:55;99917.34;;;9.18;100.00
68948;BME280;55996;49.546;7.400;2024-01-30T11:50:21;99918.34;;;9.03;100.00
68948;BME280;55996;49.546;7.400;2024-01-30T11:52:47;99908.66;;;9.18;100.00
68948;BME280;55996;49.546;7.400;2024-01-30T11:55:14;99922.66;;;9.09;100.00
68948;BME280;55996;49.546;7.400;2024-01-30T11:57:39;99918.25;;;9.16;100.00
68948;BME280;55996;49.546;7.400;2024-01-30T12:00:05;99925.19;;;9.17;100.00
68948;BME280;55996;49.546;7.400;2024-01-30T12:02:36;99925.16;;;9.20;100.00
68948;BME280;55996;49.546;7.400;2024-01-30T12:05:08;99926.06;;;9.16;100.00
68948;BME280;55996;49.546;7.400;2024-01-30T12:07:34;99924.28;;;9.24;100.00
68948;BME280;55996;49.546;7.400;2024-01-30T12:10:00;99919.88;;;9.28;100.00
68948;BME280;55996;49.546;7.400;2024-01-30T12:12:26;99928.44;;;9.44;100.00
68948;BME280;55996;49.546;7.400;2024-01-30T12:14:52;99913.63;;;9.50;100.00
68948;BME280;55996;49.546;7.400;2024-01-30T12:17:32;99905.63;;;9.69;100.00
68948;BME280;55996;49.546;7.400;2024-01-30T12:20:09;99920.19;;;9.92;100.00
68948;BME280;55996;49.546;7.400;2024-01-30T12:22:45;99911.31;;;10.07;100.00
68948;BME280;55996;49.546;7.400;2024-01-30T12:25:20;99902.66;;;10.01;100.00
68948;BME280;55996;49.546;7.400;2024-01-30T12:27:47;99904.41;;;10.01;100.00
68948;BME280;55996;49.546;7.400;2024-01-30T12:30:17;99893.84;;;10.13;100.00
68948;BME280;55996;49.546;7.400;2024-01-30T12:32:47;99900.63;;;10.25;100.00
68948;BME280;55996;49.546;7.400;2024-01-30T12:35:13;99899.63;;;10.36;100.00
68948;BME280;55996;49.546;7.400;2024-01-30T12:37:40;99901.31;;;10.46;100.00
68948;BME280;55996;49.546;7.400;2024-01-30T12:40:07;99898.63;;;10.49;100.00
68948;BME280;55996;49.546;7.400;2024-01-30T12:42:33;99895.09;;;10.52;100.00
68948;BME280;55996;49.546;7.400;2024-01-30T12:44:58;99887.25;;;10.52;100.00
68948;BME280;55996;49.546;7.400;2024-01-30T12:47:24;99895.00;;;10.61;100.00
68948;BME280;55996;49.546;7.400;2024-01-30T12:49:50;99901.09;;;10.61;100.00
68948;BME280;55996;49.546;7.400;2024-01-30T12:52:19;99905.69;;;10.42;100.00